createdAt,value
2023-04-26T00:02:52.209Z,97440.34
2023-04-26T00:05:58.247Z,97447.31
2023-04-26T00:09:08.248Z,97455.84
2023-04-26T00:12:14.952Z,97455.66
2023-04-26T00:15:21.833Z,97456.31
2023-04-26T00:18:27.818Z,97468.47
2023-04-26T00:21:34.881Z,97455.88
2023-04-26T00:24:43.650Z,97452.72
2023-04-26T00:27:50.770Z,97457.09
2023-04-26T00:30:58.275Z,97464.06
2023-04-26T00:34:05.101Z,97463.09
2023-04-26T00:37:11.012Z,97459.63
2023-04-26T00:40:21.051Z,97456.81
2023-04-26T00:43:27.046Z,97454.00
2023-04-26T00:46:34.107Z,97451.53
2023-04-26T00:49:40.426Z,97464.44
2023-04-26T00:52:50.304Z,97464.09
2023-04-26T00:55:59.306Z,97472.03
2023-04-26T00:59:07.037Z,97466.94
2023-04-26T01:02:13.308Z,97467.41
2023-04-26T01:05:21.062Z,97471.69
2023-04-26T01:08:27.863Z,97471.56
2023-04-26T01:11:41.630Z,97467.72
2023-04-26T01:14:49.100Z,97472.03
2023-04-26T01:17:55.845Z,97473.00
2023-04-26T01:21:05.066Z,97472.50
2023-04-26T01:24:15.844Z,97478.94
2023-04-26T01:27:22.657Z,97482.25
2023-04-26T01:30:29.073Z,97487.19
2023-04-26T01:33:35.913Z,97488.84
2023-04-26T01:36:42.875Z,97493.91
2023-04-26T01:39:53.959Z,97488.31
2023-04-26T01:43:00.055Z,97490.75
2023-04-26T01:46:08.735Z,97502.47
2023-04-26T01:49:15.039Z,97505.06
2023-04-26T01:52:21.970Z,97508.53
2023-04-26T01:55:30.592Z,97504.84
2023-04-26T01:58:37.520Z,97505.19
2023-04-26T02:01:46.030Z,97514.81
2023-04-26T02:04:52.805Z,97506.16
2023-04-26T02:07:58.852Z,97513.72
2023-04-26T02:11:08.257Z,97514.63
2023-04-26T02:14:16.072Z,97516.25
2023-04-26T02:17:23.999Z,97513.56
2023-04-26T02:20:29.880Z,97517.50
2023-04-26T02:23:36.690Z,97513.34
2023-04-26T02:26:45.289Z,97514.50
2023-04-26T02:29:52.112Z,97514.25
2023-04-26T02:32:58.548Z,97514.50
2023-04-26T02:36:08.416Z,97516.25
2023-04-26T02:39:17.309Z,97511.22
2023-04-26T02:42:26.900Z,97516.63
2023-04-26T02:45:33.133Z,97512.69
2023-04-26T02:48:40.010Z,97525.31
2023-04-26T02:51:46.444Z,97522.28
2023-04-26T02:54:59.554Z,97529.53
2023-04-26T02:58:18.727Z,97522.47
2023-04-26T03:01:31.671Z,97533.69
2023-04-26T03:04:38.853Z,97527.72
2023-04-26T03:07:45.667Z,97526.53
2023-04-26T03:10:51.652Z,97532.38
2023-04-26T03:14:01.627Z,97538.63
2023-04-26T03:17:16.586Z,97546.53
2023-04-26T03:20:28.486Z,97547.34
2023-04-26T03:23:34.470Z,97551.34
2023-04-26T03:26:44.341Z,97556.09
2023-04-26T03:29:53.210Z,97555.53
2023-04-26T03:33:00.374Z,97553.81
2023-04-26T03:36:06.755Z,97556.44
2023-04-26T03:39:13.789Z,97566.28
2023-04-26T03:42:19.776Z,97565.16
2023-04-26T03:45:29.747Z,97569.75
2023-04-26T03:48:35.718Z,97577.94
2023-04-26T03:51:42.521Z,97576.69
2023-04-26T03:54:48.621Z,97576.50
2023-04-26T03:57:57.122Z,97578.84
2023-04-26T04:01:05.679Z,97573.97
2023-04-26T04:04:15.459Z,97580.59
2023-04-26T04:07:23.400Z,97591.13
2023-04-26T04:10:35.348Z,97589.63
2023-04-26T04:13:41.223Z,97595.09
2023-04-26T04:16:51.223Z,97594.63
2023-04-26T04:19:57.253Z,97597.91
2023-04-26T04:23:06.549Z,97607.16
2023-04-26T04:26:12.844Z,97605.59
2023-04-26T04:29:20.463Z,97606.13
2023-04-26T04:32:29.613Z,97611.13
2023-04-26T04:35:37.018Z,97610.63
2023-04-26T04:38:44.699Z,97605.66
2023-04-26T04:41:52.811Z,97616.75
2023-04-26T04:45:00.005Z,97618.06
2023-04-26T04:48:22.217Z,97618.44
2023-04-26T04:51:28.358Z,97612.38
2023-04-26T04:54:36.005Z,97617.56
2023-04-26T04:57:43.093Z,97626.38
2023-04-26T05:00:51.801Z,97616.47
2023-04-26T05:04:11.915Z,97617.78
2023-04-26T05:07:19.192Z,97623.03
2023-04-26T05:10:25.296Z,97622.56
2023-04-26T05:13:32.933Z,97630.91
2023-04-26T05:16:39.087Z,97636.44
2023-04-26T05:19:48.672Z,97637.69
2023-04-26T05:22:55.104Z,97638.34
2023-04-26T05:26:07.930Z,97646.03
2023-04-26T05:29:32.327Z,97641.06
2023-04-26T05:32:46.103Z,97648.44
2023-04-26T05:36:15.366Z,97646.69
2023-04-26T05:39:22.232Z,97642.66
2023-04-26T05:42:40.501Z,97648.53
2023-04-26T05:45:56.490Z,97653.16
2023-04-26T05:49:04.166Z,97645.78
2023-04-26T05:52:14.263Z,97647.63
2023-04-26T05:55:21.723Z,97656.03
2023-04-26T05:58:29.625Z,97655.81
2023-04-26T06:01:35.710Z,97655.56
2023-04-26T06:04:43.626Z,97667.09
2023-04-26T06:07:55.419Z,97658.81
2023-04-26T06:11:02.252Z,97666.66
2023-04-26T06:14:30.360Z,97668.16
2023-04-26T06:17:45.069Z,97665.38
2023-04-26T06:20:51.157Z,97667.56
2023-04-26T06:24:00.659Z,97677.97
2023-04-26T06:27:11.925Z,97674.03
2023-04-26T06:30:22.809Z,97677.19
2023-04-26T06:33:29.715Z,97676.25
2023-04-26T06:36:36.736Z,97683.03
2023-04-26T06:39:45.954Z,97680.41
2023-04-26T06:42:53.226Z,97681.31
2023-04-26T06:46:15.613Z,97666.63
2023-04-26T06:49:22.920Z,97675.94
2023-04-26T06:52:30.165Z,97670.34
2023-04-26T06:55:40.027Z,97668.81
2023-04-26T06:59:03.576Z,97662.81
2023-04-26T07:02:10.730Z,97681.06
2023-04-26T07:05:17.674Z,97680.09
2023-04-26T07:08:24.700Z,97684.09
2023-04-26T07:11:34.539Z,97683.47
2023-04-26T07:14:43.610Z,97687.06
2023-04-26T07:17:49.632Z,97690.25
2023-04-26T07:20:59.430Z,97685.50
2023-04-26T07:24:10.369Z,97686.47
2023-04-26T07:27:19.777Z,97694.84
2023-04-26T07:30:26.595Z,97700.75
2023-04-26T07:33:33.705Z,97702.53
2023-04-26T07:36:39.914Z,97697.09
2023-04-26T07:39:46.776Z,97702.06
2023-04-26T07:42:56.887Z,97701.56
2023-04-26T07:46:08.545Z,97707.16
2023-04-26T07:49:16.445Z,97702.91
2023-04-26T07:52:23.685Z,97710.66
2023-04-26T07:55:30.508Z,97694.84
2023-04-26T07:58:41.023Z,97704.88
2023-04-26T08:01:47.017Z,97712.38
2023-04-26T08:04:56.115Z,97711.59
2023-04-26T08:08:02.281Z,97722.91
2023-04-26T08:11:13.938Z,97721.13
2023-04-26T08:14:24.466Z,97723.84
2023-04-26T08:17:31.589Z,97714.63
2023-04-26T08:20:37.646Z,97725.72
2023-04-26T08:23:44.811Z,97721.97
2023-04-26T08:26:50.708Z,97718.88
2023-04-26T08:30:00.137Z,97720.81
2023-04-26T08:33:13.627Z,97726.44
2023-04-26T08:36:20.958Z,97717.56
2023-04-26T08:39:26.940Z,97710.31
2023-04-26T08:42:37.939Z,97730.81
2023-04-26T08:45:56.392Z,97719.69
2023-04-26T08:49:21.037Z,97709.59
2023-04-26T08:52:30.478Z,97736.22
2023-04-26T08:55:46.717Z,97727.59
2023-04-26T08:58:56.241Z,97725.53
2023-04-26T09:02:08.050Z,97722.50
2023-04-26T09:05:15.250Z,97726.31
2023-04-26T09:08:24.819Z,97739.16
2023-04-26T09:11:31.062Z,97733.56
2023-04-26T09:14:38.662Z,97732.91
2023-04-26T09:17:47.392Z,97730.09
2023-04-26T09:21:18.113Z,97728.31
2023-04-26T09:24:24.117Z,97728.25
2023-04-26T09:27:43.514Z,97727.75
2023-04-26T09:30:49.682Z,97723.13
2023-04-26T09:34:05.244Z,97728.63
2023-04-26T09:37:15.396Z,97728.28
2023-04-26T09:40:23.715Z,97739.88
2023-04-26T09:43:29.651Z,97734.34
2023-04-26T09:46:44.381Z,97747.13
2023-04-26T09:49:54.641Z,97739.44
2023-04-26T09:53:03.108Z,97741.91
2023-04-26T09:56:14.973Z,97742.19
2023-04-26T09:59:21.778Z,97733.53
2023-04-26T10:02:31.596Z,97728.22
2023-04-26T10:05:41.744Z,97723.94
2023-04-26T10:08:48.789Z,97723.72
2023-04-26T10:11:56.428Z,97727.13
2023-04-26T10:15:02.697Z,97725.84
2023-04-26T10:18:10.076Z,97725.72
2023-04-26T10:21:36.530Z,97728.38
2023-04-26T10:24:43.968Z,97726.13
2023-04-26T10:27:57.883Z,97733.56
2023-04-26T10:31:05.836Z,97739.84
2023-04-26T10:34:25.478Z,97730.91
2023-04-26T10:37:34.963Z,97735.63
2023-04-26T10:40:46.207Z,97744.38
2023-04-26T10:44:00.115Z,97730.00
2023-04-26T10:47:33.629Z,97726.63
2023-04-26T10:51:12.778Z,97738.25
2023-04-26T10:54:21.484Z,97726.56
2023-04-26T10:57:54.209Z,97732.63
2023-04-26T11:01:12.044Z,97733.97
2023-04-26T11:04:32.836Z,97742.88
2023-04-26T11:07:44.074Z,97729.84
2023-04-26T11:11:02.831Z,97724.78
2023-04-26T11:14:10.338Z,97724.66
2023-04-26T11:17:17.645Z,97727.16
2023-04-26T11:20:30.776Z,97734.38
2023-04-26T11:23:38.759Z,97727.97
2023-04-26T11:26:54.998Z,97727.13
2023-04-26T11:30:05.521Z,97736.63
2023-04-26T11:33:23.333Z,97737.50
2023-04-26T11:36:30.265Z,97745.66
2023-04-26T11:39:40.600Z,97743.91
2023-04-26T11:42:50.172Z,97738.25
2023-04-26T11:46:09.384Z,97733.69
2023-04-26T11:49:30.668Z,97734.06
2023-04-26T11:52:37.282Z,97735.13
2023-04-26T11:55:44.360Z,97733.56
2023-04-26T11:58:56.774Z,97744.91
2023-04-26T12:02:10.551Z,97739.03
2023-04-26T12:05:31.867Z,97749.19
2023-04-26T12:08:40.885Z,97754.63
2023-04-26T12:11:53.099Z,97740.81
2023-04-26T12:15:02.482Z,97747.41
2023-04-26T12:18:12.977Z,97751.59
2023-04-26T12:21:23.233Z,97749.00
2023-04-26T12:24:37.012Z,97740.19
2023-04-26T12:27:44.339Z,97736.47
2023-04-26T12:30:56.551Z,97735.75
2023-04-26T12:34:03.442Z,97748.50
2023-04-26T12:37:09.537Z,97750.22
2023-04-26T12:40:17.035Z,97743.16
2023-04-26T12:43:24.427Z,97751.41
2023-04-26T12:46:41.613Z,97754.31
2023-04-26T12:49:47.842Z,97766.09
2023-04-26T12:52:54.705Z,97775.72
2023-04-26T12:56:00.703Z,97775.94
2023-04-26T12:59:08.167Z,97784.22
2023-04-26T13:02:16.813Z,97781.59
2023-04-26T13:05:24.949Z,97768.56
2023-04-26T13:08:31.920Z,97764.53
2023-04-26T13:11:38.752Z,97758.78
2023-04-26T13:14:44.694Z,97759.84
2023-04-26T13:17:54.219Z,97767.59
2023-04-26T13:21:05.387Z,97760.59
2023-04-26T13:24:12.254Z,97765.41
2023-04-26T13:27:18.475Z,97760.69
2023-04-26T13:30:35.337Z,97767.13
2023-04-26T13:33:43.908Z,97777.75
2023-04-26T13:37:00.978Z,97781.59
2023-04-26T13:40:08.618Z,97783.84
2023-04-26T13:43:15.754Z,97785.72
2023-04-26T13:46:21.732Z,97786.53
2023-04-26T13:49:31.399Z,97796.31
2023-04-26T13:52:51.425Z,97788.09
2023-04-26T13:55:58.381Z,97805.22
2023-04-26T13:59:06.552Z,97800.56
2023-04-26T14:02:14.323Z,97789.75
2023-04-26T14:05:31.685Z,97797.16
2023-04-26T14:08:38.545Z,97797.59
2023-04-26T14:11:57.101Z,97799.19
2023-04-26T14:15:29.669Z,97794.78
2023-04-26T14:18:36.036Z,97791.78
2023-04-26T14:21:45.731Z,97801.50
2023-04-26T14:24:51.928Z,97796.06
2023-04-26T14:27:58.791Z,97800.84
2023-04-26T14:31:04.814Z,97801.22
2023-04-26T14:34:16.649Z,97807.75
2023-04-26T14:37:32.579Z,97799.19
2023-04-26T14:40:40.683Z,97781.13
2023-04-26T14:43:46.755Z,97797.22
2023-04-26T14:46:54.069Z,97801.81
2023-04-26T14:50:01.043Z,97809.84
2023-04-26T14:53:10.758Z,97814.66
2023-04-26T14:56:24.113Z,97822.41
2023-04-26T14:59:31.020Z,97820.00
2023-04-26T15:02:37.260Z,97821.16
2023-04-26T15:05:44.125Z,97823.28
2023-04-26T15:08:52.930Z,97831.66
2023-04-26T15:12:00.033Z,97820.69
2023-04-26T15:15:14.630Z,97822.94
2023-04-26T15:18:21.677Z,97831.03
2023-04-26T15:21:29.194Z,97834.59
2023-04-26T15:24:44.377Z,97837.34
2023-04-26T15:27:50.800Z,97828.84
2023-04-26T15:31:05.917Z,97835.44
2023-04-26T15:34:12.250Z,97842.25
2023-04-26T15:37:26.189Z,97837.16
2023-04-26T15:40:38.335Z,97842.75
2023-04-26T15:43:46.792Z,97836.63
2023-04-26T15:46:52.877Z,97838.22
2023-04-26T15:50:05.096Z,97839.34
2023-04-26T15:53:11.360Z,97837.28
2023-04-26T15:56:22.695Z,97832.25
2023-04-26T15:59:30.367Z,97835.81
2023-04-26T16:02:37.512Z,97827.41
2023-04-26T16:05:46.590Z,97827.78
2023-04-26T16:08:53.461Z,97833.16
2023-04-26T16:12:05.062Z,97834.75
2023-04-26T16:15:14.737Z,97835.56
2023-04-26T16:18:21.190Z,97836.84
2023-04-26T16:21:34.096Z,97836.78
2023-04-26T16:24:40.427Z,97836.75
2023-04-26T16:27:49.816Z,97857.50
2023-04-26T16:30:56.332Z,97841.25
2023-04-26T16:34:05.330Z,97836.22
2023-04-26T16:37:11.329Z,97843.28
2023-04-26T16:40:18.482Z,97849.50
2023-04-26T16:43:27.810Z,97855.41
2023-04-26T16:46:34.728Z,97864.00
2023-04-26T16:49:40.864Z,97865.72
2023-04-26T16:52:47.706Z,97874.03
2023-04-26T16:55:56.837Z,97883.22
2023-04-26T16:59:06.794Z,97882.63
2023-04-26T17:02:12.785Z,97888.41
2023-04-26T17:05:20.053Z,97894.50
2023-04-26T17:08:27.649Z,97899.84
2023-04-26T17:11:35.764Z,97898.72
2023-04-26T17:14:44.368Z,97900.22
2023-04-26T17:17:58.142Z,97894.09
2023-04-26T17:21:04.185Z,97893.91
2023-04-26T17:24:11.776Z,97897.75
2023-04-26T17:27:18.347Z,97905.34
2023-04-26T17:30:28.200Z,97905.22
2023-04-26T17:33:36.549Z,97908.53
2023-04-26T17:36:43.537Z,97904.06
2023-04-26T17:39:49.530Z,97908.88
2023-04-26T17:42:56.551Z,97915.22
2023-04-26T17:46:08.413Z,97912.88
2023-04-26T17:49:15.309Z,97915.66
2023-04-26T17:52:21.250Z,97919.78
2023-04-26T17:55:28.039Z,97922.75
2023-04-26T17:58:34.062Z,97926.22
2023-04-26T18:01:46.558Z,97935.00
2023-04-26T18:04:53.349Z,97928.03
2023-04-26T18:08:00.988Z,97932.84
2023-04-26T18:11:07.219Z,97934.31
2023-04-26T18:14:14.147Z,97936.78
2023-04-26T18:17:22.881Z,97944.38
2023-04-26T18:20:32.308Z,97944.91
2023-04-26T18:23:38.281Z,97953.28
2023-04-26T18:26:45.125Z,97958.09
2023-04-26T18:29:51.130Z,97954.41
2023-04-26T18:33:00.565Z,97963.84
2023-04-26T18:36:06.975Z,97964.47
2023-04-26T18:39:19.939Z,97962.03
2023-04-26T18:42:29.765Z,97970.81
2023-04-26T18:45:36.732Z,97975.47
2023-04-26T18:48:49.225Z,97977.28
2023-04-26T18:51:57.549Z,97979.28
2023-04-26T18:55:03.846Z,97982.72
2023-04-26T18:58:10.706Z,97982.53
2023-04-26T19:01:18.841Z,97993.75
2023-04-26T19:04:28.997Z,97992.25
2023-04-26T19:07:41.937Z,97988.09
2023-04-26T19:10:48.808Z,97994.69
2023-04-26T19:14:00.921Z,97995.97
2023-04-26T19:17:19.224Z,97995.47
2023-04-26T19:20:29.835Z,97988.13
2023-04-26T19:23:36.974Z,98000.22
2023-04-26T19:26:45.851Z,98003.63
2023-04-26T19:29:59.839Z,98005.72
2023-04-26T19:33:06.277Z,98002.78
2023-04-26T19:36:17.522Z,97999.63
2023-04-26T19:39:26.448Z,98008.53
2023-04-26T19:42:33.434Z,98003.56
2023-04-26T19:45:41.201Z,98006.38
2023-04-26T19:48:48.048Z,98010.81
2023-04-26T19:51:56.817Z,98001.16
2023-04-26T19:55:03.807Z,97999.59
2023-04-26T19:58:10.962Z,98000.63
2023-04-26T20:01:17.799Z,98006.75
2023-04-26T20:04:24.163Z,97995.13
2023-04-26T20:07:45.350Z,98006.44
2023-04-26T20:10:51.408Z,98018.59
2023-04-26T20:13:58.310Z,98019.06
2023-04-26T20:17:05.131Z,98018.22
2023-04-26T20:20:22.497Z,98022.44
2023-04-26T20:23:33.498Z,98017.16
2023-04-26T20:26:40.271Z,98023.63
2023-04-26T20:29:46.112Z,98015.22
2023-04-26T20:32:52.969Z,98023.81
2023-04-26T20:35:59.649Z,98029.09
2023-04-26T20:39:10.089Z,98027.38
2023-04-26T20:42:16.341Z,98031.75
2023-04-26T20:45:30.236Z,98022.63
2023-04-26T20:48:39.493Z,98025.25
2023-04-26T20:51:46.493Z,98031.44
2023-04-26T20:54:56.540Z,98033.00
2023-04-26T20:58:03.256Z,98033.22
2023-04-26T21:01:09.928Z,98037.56
2023-04-26T21:04:17.006Z,98041.50
2023-04-26T21:07:23.120Z,98036.13
2023-04-26T21:10:32.637Z,98037.78
2023-04-26T21:13:38.654Z,98037.00
2023-04-26T21:16:45.459Z,98041.72
2023-04-26T21:19:51.418Z,98039.25
2023-04-26T21:22:58.291Z,98043.00
2023-04-26T21:26:07.194Z,98044.97
2023-04-26T21:29:13.931Z,98044.13
2023-04-26T21:32:19.929Z,98044.97
2023-04-26T21:35:29.681Z,98062.63
2023-04-26T21:38:35.750Z,98055.53
2023-04-26T21:41:46.513Z,98059.97
2023-04-26T21:44:53.643Z,98062.38
2023-04-26T21:48:00.433Z,98060.56
2023-04-26T21:51:06.808Z,98058.88
2023-04-26T21:54:13.911Z,98064.22
2023-04-26T21:57:30.354Z,98064.50
2023-04-26T22:00:42.568Z,98073.66
2023-04-26T22:03:48.904Z,98076.81
2023-04-26T22:06:55.782Z,98082.25
2023-04-26T22:10:01.987Z,98081.97
2023-04-26T22:13:15.400Z,98089.19
2023-04-26T22:16:21.623Z,98093.91
2023-04-26T22:19:29.791Z,98094.75
2023-04-26T22:22:35.802Z,98094.75
2023-04-26T22:25:42.903Z,98098.06
2023-04-26T22:28:55.567Z,98104.03
2023-04-26T22:32:06.369Z,98096.50
2023-04-26T22:35:12.722Z,98095.53
2023-04-26T22:38:19.523Z,98099.41
2023-04-26T22:41:25.475Z,98091.22
2023-04-26T22:44:34.874Z,98096.31
2023-04-26T22:47:41.091Z,98097.69
2023-04-26T22:50:47.910Z,98093.78
2023-04-26T22:53:56.498Z,98094.88
2023-04-26T22:57:03.648Z,98097.63
2023-04-26T23:00:20.280Z,98098.03
2023-04-26T23:03:27.169Z,98102.19
2023-04-26T23:06:33.427Z,98104.41
2023-04-26T23:09:42.959Z,98112.97
2023-04-26T23:12:49.534Z,98113.38
2023-04-26T23:15:59.000Z,98109.63
2023-04-26T23:19:12.204Z,98109.19
2023-04-26T23:22:19.123Z,98112.22
2023-04-26T23:25:25.230Z,98120.00
2023-04-26T23:28:32.188Z,98116.38
2023-04-26T23:31:46.615Z,98108.28
2023-04-26T23:34:53.361Z,98111.91
2023-04-26T23:37:59.220Z,98111.31
2023-04-26T23:41:20.120Z,98120.44
2023-04-26T23:44:25.990Z,98120.56
2023-04-26T23:47:35.383Z,98120.97
2023-04-26T23:50:41.256Z,98118.63
2023-04-26T23:53:48.123Z,98122.53
2023-04-26T23:56:54.008Z,98120.00
